Time;durP1;ratioP1;P1;durP2;ratioP2;P2;SDS_P1;SDS_P2;PMS_P1;PMS_P2;Temp;Humidity;BMP_temperature;BMP_pressure;BME280_temperature;BME280_humidity;BME280_pressure;Samples;Min_cycle;Max_cycle;Signal;HPM_P1;HPM_P2
2022/05/31 00:01:44;;;;;;;6.30;5.80;;;;;;;;;;5066642;28;24475;-46
2022/05/31 00:04:10;;;;;;;6.10;5.70;;;;;;;;;;5063497;28;24534;-45
2022/05/31 00:06:35;;;;;;;5.93;5.53;;;;;;;;;;5080301;28;25067;-45
2022/05/31 00:09:00;;;;;;;6.32;5.82;;;;;;;;;;5070793;28;24479;-45
2022/05/31 00:11:25;;;;;;;5.90;5.50;;;;;;;;;;5065430;28;24430;-46
2022/05/31 00:13:50;;;;;;;6.20;5.70;;;;;;;;;;5075554;28;24475;-46
2022/05/31 00:16:16;;;;;;;5.80;5.33;;;;;;;;;;5074556;28;24430;-46
2022/05/31 00:18:41;;;;;;;5.68;5.28;;;;;;;;;;5082602;28;24591;-46
2022/05/31 00:21:07;;;;;;;5.70;5.30;;;;;;;;;;5063484;28;25044;-46
2022/05/31 00:23:33;;;;;;;5.43;5.03;;;;;;;;;;5069933;28;24499;-46
2022/05/31 00:25:58;;;;;;;5.57;5.18;;;;;;;;;;5064401;28;24996;-46
2022/05/31 00:28:24;;;;;;;5.73;5.33;;;;;;;;;;5073204;28;24446;-45
2022/05/31 00:30:49;;;;;;;5.53;5.13;;;;;;;;;;5069625;28;24495;-46
2022/05/31 00:33:15;;;;;;;5.38;5.07;;;;;;;;;;5076395;28;24430;-46
2022/05/31 00:35:41;;;;;;;4.80;4.50;;;;;;;;;;5067347;28;24468;-46
2022/05/31 00:38:07;;;;;;;5.50;5.10;;;;;;;;;;5085042;28;24437;-46
2022/05/31 00:40:33;;;;;;;5.43;5.03;;;;;;;;;;5076278;28;24430;-45
2022/05/31 00:43:00;;;;;;;5.93;5.50;;;;;;;;;;5081558;28;24885;-46
2022/05/31 00:45:41;;;;;;;5.10;4.80;;;;;;;;;;5091151;28;24438;-45
2022/05/31 00:48:10;;;;;;;5.28;4.80;;;;;;;;;;5077804;28;24429;-45
2022/05/31 00:50:41;;;;;;;5.30;4.90;;;;;;;;;;5099334;28;24492;-46
2022/05/31 00:53:11;;;;;;;5.10;4.70;;;;;;;;;;5095114;28;25012;-46
2022/05/31 00:55:46;;;;;;;5.50;5.10;;;;;;;;;;5096739;28;24973;-46
2022/05/31 00:58:14;;;;;;;4.90;4.60;;;;;;;;;;5086228;28;24788;-46
2022/05/31 01:00:40;;;;;;;5.10;4.80;;;;;;;;;;5093661;28;25097;-46
2022/05/31 01:03:05;;;;;;;5.33;4.97;;;;;;;;;;5088086;28;24431;-46
2022/05/31 01:05:31;;;;;;;5.40;5.00;;;;;;;;;;5095735;28;24433;-45
2022/05/31 01:07:56;;;;;;;5.27;4.87;;;;;;;;;;5092141;28;24430;-45
2022/05/31 01:10:21;;;;;;;5.80;5.40;;;;;;;;;;5099683;28;24433;-46
2022/05/31 01:12:47;;;;;;;5.73;5.33;;;;;;;;;;5081542;28;24437;-45
2022/05/31 01:15:14;;;;;;;5.50;5.10;;;;;;;;;;5080318;28;24473;-46
2022/05/31 01:17:40;;;;;;;5.88;5.47;;;;;;;;;;5065868;28;25014;-46
2022/05/31 01:20:06;;;;;;;6.18;5.68;;;;;;;;;;5079546;28;24420;-44
2022/05/31 01:22:42;;;;;;;5.80;5.40;;;;;;;;;;5096418;28;24418;-44
2022/05/31 01:25:10;;;;;;;5.70;5.30;;;;;;;;;;5074197;28;24483;-45
2022/05/31 01:27:40;;;;;;;6.25;5.75;;;;;;;;;;5084822;28;24955;-46
2022/05/31 01:30:07;;;;;;;6.00;5.60;;;;;;;;;;5076966;28;24434;-44
2022/05/31 01:32:35;;;;;;;6.20;5.70;;;;;;;;;;5095321;28;24425;-44
2022/05/31 01:35:02;;;;;;;5.90;5.50;;;;;;;;;;5093141;28;24469;-45
2022/05/31 01:37:37;;;;;;;5.80;5.40;;;;;;;;;;5059046;28;24434;-45
2022/05/31 01:40:05;;;;;;;6.18;5.68;;;;;;;;;;5086927;28;24410;-45
2022/05/31 01:42:38;;;;;;;6.10;5.70;;;;;;;;;;5075311;28;24453;-45
2022/05/31 01:45:17;;;;;;;6.70;6.20;;;;;;;;;;5090149;28;24796;-45
2022/05/31 01:47:42;;;;;;;6.10;5.70;;;;;;;;;;5079335;28;24418;-45
2022/05/31 01:50:12;;;;;;;6.30;5.90;;;;;;;;;;5085385;28;24521;-45
2022/05/31 01:52:38;;;;;;;6.60;6.10;;;;;;;;;;5081488;28;24863;-45
2022/05/31 01:55:04;;;;;;;6.93;6.43;;;;;;;;;;5084383;28;25027;-45
2022/05/31 01:57:32;;;;;;;6.20;5.80;;;;;;;;;;5063700;28;24487;-45
2022/05/31 02:00:00;;;;;;;5.95;5.50;;;;;;;;;;5077317;28;24415;-45
2022/05/31 02:02:25;;;;;;;6.70;6.20;;;;;;;;;;5086107;28;24448;-45
2022/05/31 02:04:50;;;;;;;6.77;6.37;;;;;;;;;;5067659;28;24815;-45
2022/05/31 02:07:21;;;;;;;6.43;5.93;;;;;;;;;;5087532;28;24423;-45
2022/05/31 02:09:47;;;;;;;6.90;6.40;;;;;;;;;;5087172;28;24468;-45
2022/05/31 02:12:13;;;;;;;6.18;5.78;;;;;;;;;;5092572;28;24459;-45
2022/05/31 02:14:38;;;;;;;7.53;6.85;;;;;;;;;;5087009;28;24701;-45
2022/05/31 02:17:04;;;;;;;7.80;7.20;;;;;;;;;;5077231;28;24423;-45
2022/05/31 02:19:29;;;;;;;7.60;7.00;;;;;;;;;;5074720;28;24437;-43
2022/05/31 02:21:55;;;;;;;7.63;7.03;;;;;;;;;;5076710;28;24840;-44
2022/05/31 02:24:21;;;;;;;8.03;7.43;;;;;;;;;;5082574;28;24483;-44
2022/05/31 02:26:46;;;;;;;7.20;6.60;;;;;;;;;;5076354;28;24491;-44
2022/05/31 02:29:12;;;;;;;8.00;7.30;;;;;;;;;;5078511;28;24422;-45
2022/05/31 02:31:39;;;;;;;8.02;7.30;;;;;;;;;;5075217;28;24446;-45
2022/05/31 02:34:04;;;;;;;7.50;7.00;;;;;;;;;;5096449;28;24413;-43
2022/05/31 02:36:29;;;;;;;7.17;6.60;;;;;;;;;;5079931;28;24423;-44
2022/05/31 02:38:55;;;;;;;6.60;6.10;;;;;;;;;;5078689;28;24560;-44
2022/05/31 02:41:20;;;;;;;6.80;6.30;;;;;;;;;;5081978;28;24448;-45
2022/05/31 02:43:46;;;;;;;7.30;6.80;;;;;;;;;;5061510;28;24494;-44
2022/05/31 02:46:11;;;;;;;7.40;6.90;;;;;;;;;;5061303;28;24491;-44
2022/05/31 02:48:36;;;;;;;8.03;7.43;;;;;;;;;;5060235;28;24587;-45
2022/05/31 02:51:02;;;;;;;7.68;7.15;;;;;;;;;;5045509;28;24869;-45
2022/05/31 02:53:29;;;;;;;8.20;7.50;;;;;;;;;;5064097;28;24441;-45
2022/05/31 02:55:54;;;;;;;8.38;7.78;;;;;;;;;;5078492;28;25022;-45
2022/05/31 02:58:20;;;;;;;7.80;7.20;;;;;;;;;;5071268;28;24438;-44
2022/05/31 03:00:45;;;;;;;7.25;6.65;;;;;;;;;;5064831;28;24778;-44
2022/05/31 03:03:10;;;;;;;6.75;6.25;;;;;;;;;;5057861;28;24900;-45
2022/05/31 03:05:35;;;;;;;6.15;5.75;;;;;;;;;;5050260;28;24464;-44
2022/05/31 03:08:00;;;;;;;6.30;5.80;;;;;;;;;;5059026;28;24445;-45
2022/05/31 03:10:29;;;;;;;7.40;6.80;;;;;;;;;;5059333;28;24501;-44
2022/05/31 03:12:55;;;;;;;7.05;6.55;;;;;;;;;;5060300;28;24466;-44
2022/05/31 03:15:21;;;;;;;6.80;6.30;;;;;;;;;;5062612;28;24499;-45
2022/05/31 03:17:58;;;;;;;6.85;6.35;;;;;;;;;;5060731;28;24909;-44
2022/05/31 03:20:33;;;;;;;6.18;5.70;;;;;;;;;;5056456;28;24458;-45
2022/05/31 03:23:08;;;;;;;6.28;5.78;;;;;;;;;;5054136;28;24423;-45
2022/05/31 03:25:34;;;;;;;6.50;6.00;;;;;;;;;;5058721;28;24499;-45
2022/05/31 03:28:01;;;;;;;6.00;5.60;;;;;;;;;;5069299;28;24939;-45
2022/05/31 03:30:26;;;;;;;6.10;5.60;;;;;;;;;;5066815;28;24402;-45
2022/05/31 03:32:53;;;;;;;6.27;5.77;;;;;;;;;;5067693;28;24410;-45
2022/05/31 03:35:18;;;;;;;5.70;5.30;;;;;;;;;;5068666;28;24778;-45
2022/05/31 03:37:43;;;;;;;5.90;5.50;;;;;;;;;;5064154;28;25035;-44
2022/05/31 03:40:09;;;;;;;5.93;5.40;;;;;;;;;;5068080;28;24406;-45
2022/05/31 03:42:34;;;;;;;6.10;5.63;;;;;;;;;;5076453;28;24418;-43
2022/05/31 03:44:59;;;;;;;6.45;5.95;;;;;;;;;;5081819;28;24786;-45
2022/05/31 03:47:24;;;;;;;6.55;5.97;;;;;;;;;;5070388;28;24899;-45
2022/05/31 03:49:49;;;;;;;5.63;5.23;;;;;;;;;;5066559;28;24402;-45
2022/05/31 03:52:14;;;;;;;5.85;5.45;;;;;;;;;;5055580;28;24414;-45
2022/05/31 03:54:40;;;;;;;6.00;5.60;;;;;;;;;;5072385;28;24398;-45
2022/05/31 03:57:06;;;;;;;5.43;5.03;;;;;;;;;;5066659;28;24495;-44
2022/05/31 03:59:35;;;;;;;5.53;5.03;;;;;;;;;;5086977;28;24477;-44
2022/05/31 04:02:00;;;;;;;5.82;5.43;;;;;;;;;;5080541;28;24815;-46
2022/05/31 04:04:25;;;;;;;6.20;5.70;;;;;;;;;;5086765;28;24475;-44
2022/05/31 04:06:50;;;;;;;6.15;5.65;;;;;;;;;;5084657;28;24433;-45
2022/05/31 04:09:15;;;;;;;6.68;6.10;;;;;;;;;;5076182;28;24547;-45
2022/05/31 04:11:41;;;;;;;5.82;5.32;;;;;;;;;;5060654;28;24497;-45
2022/05/31 04:14:06;;;;;;;5.87;5.40;;;;;;;;;;5068260;28;24797;-45
2022/05/31 04:16:32;;;;;;;5.35;5.03;;;;;;;;;;5059979;28;24935;-45
2022/05/31 04:18:58;;;;;;;5.00;4.60;;;;;;;;;;5053422;28;24522;-45
2022/05/31 04:21:23;;;;;;;5.75;5.35;;;;;;;;;;5056975;28;25418;-45
2022/05/31 04:23:58;;;;;;;5.33;4.83;;;;;;;;;;5069439;28;24426;-45
2022/05/31 04:26:23;;;;;;;4.90;4.60;;;;;;;;;;5066003;28;24446;-45
2022/05/31 04:28:49;;;;;;;5.30;4.80;;;;;;;;;;5064888;28;25033;-45
2022/05/31 04:31:14;;;;;;;5.10;4.80;;;;;;;;;;5043738;28;24523;-45
2022/05/31 04:33:39;;;;;;;5.30;4.90;;;;;;;;;;5057747;28;24423;-45
2022/05/31 04:36:09;;;;;;;6.85;6.30;;;;;;;;;;5058639;28;24526;-45
2022/05/31 04:38:35;;;;;;;6.00;5.60;;;;;;;;;;5069419;28;24777;-45
2022/05/31 04:41:00;;;;;;;5.83;5.33;;;;;;;;;;5054711;28;24435;-45
2022/05/31 04:43:25;;;;;;;5.90;5.50;;;;;;;;;;5060285;28;24443;-45
2022/05/31 04:45:51;;;;;;;5.30;4.90;;;;;;;;;;5053742;28;24439;-45
2022/05/31 04:48:16;;;;;;;6.03;5.53;;;;;;;;;;5067961;28;24510;-44
2022/05/31 04:50:41;;;;;;;5.67;5.17;;;;;;;;;;5066226;28;24426;-45
2022/05/31 04:53:06;;;;;;;5.83;5.40;;;;;;;;;;5067484;28;24980;-45
2022/05/31 04:55:31;;;;;;;6.07;5.57;;;;;;;;;;5073656;28;25034;-44
2022/05/31 04:57:57;;;;;;;5.60;5.20;;;;;;;;;;5072697;28;24430;-45
2022/05/31 05:00:22;;;;;;;5.50;5.00;;;;;;;;;;5066176;28;24585;-45
2022/05/31 05:02:47;;;;;;;5.10;4.70;;;;;;;;;;5047994;28;24912;-44
2022/05/31 05:05:12;;;;;;;5.40;5.00;;;;;;;;;;5071226;28;24438;-45
2022/05/31 05:07:37;;;;;;;6.10;5.60;;;;;;;;;;5068310;28;24454;-45
2022/05/31 05:10:06;;;;;;;8.02;6.60;;;;;;;;;;5070490;28;24567;-44
2022/05/31 05:12:31;;;;;;;5.82;5.32;;;;;;;;;;5070859;28;24983;-45
2022/05/31 05:14:57;;;;;;;5.80;5.30;;;;;;;;;;5056175;28;24425;-45
2022/05/31 05:17:23;;;;;;;5.15;4.75;;;;;;;;;;5064162;28;24427;-45
2022/05/31 05:19:48;;;;;;;5.30;4.80;;;;;;;;;;5067276;28;24398;-46
2022/05/31 05:22:13;;;;;;;4.90;4.50;;;;;;;;;;5063197;28;24556;-48
2022/05/31 05:24:38;;;;;;;4.70;4.30;;;;;;;;;;5064509;28;24776;-46
2022/05/31 05:27:03;;;;;;;5.20;4.80;;;;;;;;;;5080478;28;24567;-46
2022/05/31 05:32:13;;;;;;;5.10;4.70;;;;;;;;;;5084842;28;25170;-46
2022/05/31 05:34:38;;;;;;;4.63;4.33;;;;;;;;;;5086804;28;24394;-45
2022/05/31 05:37:03;;;;;;;4.75;4.35;;;;;;;;;;5080405;28;24517;-46
2022/05/31 05:39:28;;;;;;;5.10;4.70;;;;;;;;;;5084799;28;24861;-45
2022/05/31 05:41:53;;;;;;;4.93;4.53;;;;;;;;;;5089007;28;24394;-45
2022/05/31 05:44:18;;;;;;;4.30;4.00;;;;;;;;;;5104895;28;24517;-47
2022/05/31 05:46:44;;;;;;;4.60;4.20;;;;;;;;;;5102326;28;25038;-46
2022/05/31 05:49:09;;;;;;;4.60;4.20;;;;;;;;;;5085258;28;24476;-46
2022/05/31 05:51:34;;;;;;;4.10;3.80;;;;;;;;;;5087344;28;24847;-45
2022/05/31 05:54:03;;;;;;;3.95;3.65;;;;;;;;;;5086643;28;24832;-45
2022/05/31 05:56:28;;;;;;;4.25;3.95;;;;;;;;;;5083695;28;24378;-48
2022/05/31 05:58:53;;;;;;;3.60;3.40;;;;;;;;;;5082841;28;24520;-47
2022/05/31 06:01:37;;;;;;;3.60;3.30;;;;;;;;;;5079450;28;24464;-48
2022/05/31 06:04:20;;;;;;;3.10;2.90;;;;;;;;;;5072839;28;24517;-47
2022/05/31 06:06:46;;;;;;;3.85;3.55;;;;;;;;;;5086972;28;24433;-48
2022/05/31 06:09:20;;;;;;;3.40;3.20;;;;;;;;;;5077812;28;24827;-48
2022/05/31 06:11:45;;;;;;;3.40;3.20;;;;;;;;;;5089378;28;24513;-49
2022/05/31 06:14:37;;;;;;;3.50;3.30;;;;;;;;;;5103844;28;24500;-48
2022/05/31 06:17:06;;;;;;;3.80;3.50;;;;;;;;;;5069142;28;24469;-44
2022/05/31 06:19:35;;;;;;;3.90;3.60;;;;;;;;;;5086541;28;24791;-45
2022/05/31 06:22:01;;;;;;;3.70;3.40;;;;;;;;;;5079322;28;24473;-44
2022/05/31 06:24:31;;;;;;;4.60;4.20;;;;;;;;;;5093088;28;25053;-44
2022/05/31 06:26:56;;;;;;;3.78;3.47;;;;;;;;;;5076040;28;24991;-45
2022/05/31 06:29:21;;;;;;;3.63;3.30;;;;;;;;;;5085922;28;24449;-45
2022/05/31 06:31:47;;;;;;;3.60;3.30;;;;;;;;;;5090197;28;24414;-45
2022/05/31 06:34:12;;;;;;;4.27;3.70;;;;;;;;;;5081219;28;24471;-46
2022/05/31 06:36:39;;;;;;;3.60;3.30;;;;;;;;;;5076400;28;24436;-45
2022/05/31 06:39:04;;;;;;;3.70;3.40;;;;;;;;;;5083799;28;24422;-45
2022/05/31 06:41:29;;;;;;;3.63;3.33;;;;;;;;;;5085791;28;24394;-45
2022/05/31 06:43:55;;;;;;;3.60;3.30;;;;;;;;;;5085912;28;24426;-45
2022/05/31 06:46:21;;;;;;;3.70;3.40;;;;;;;;;;5069115;28;24827;-46
2022/05/31 06:48:46;;;;;;;3.60;3.20;;;;;;;;;;5068406;28;24461;-44
2022/05/31 06:51:12;;;;;;;4.30;4.00;;;;;;;;;;5085773;28;24390;-44
2022/05/31 06:59:05;;;;;;;3.30;3.10;;;;;;;;;;5076648;28;24480;-44
2022/05/31 07:01:31;;;;;;;3.60;3.40;;;;;;;;;;5087033;28;24395;-44
2022/05/31 07:03:58;;;;;;;3.20;3.00;;;;;;;;;;5089914;28;24524;-44
2022/05/31 07:06:23;;;;;;;3.10;2.90;;;;;;;;;;5087675;28;24453;-44
2022/05/31 07:08:48;;;;;;;3.40;3.20;;;;;;;;;;5082722;28;26672;-44
2022/05/31 07:11:13;;;;;;;3.67;3.40;;;;;;;;;;5086460;28;24500;-45
2022/05/31 07:13:38;;;;;;;3.20;3.00;;;;;;;;;;5089260;28;24476;-45
2022/05/31 07:16:03;;;;;;;3.00;2.80;;;;;;;;;;5089085;28;24443;-45
2022/05/31 07:18:29;;;;;;;3.90;3.60;;;;;;;;;;5088629;28;24410;-44
2022/05/31 07:20:55;;;;;;;4.63;3.20;;;;;;;;;;5077848;28;24422;-45
2022/05/31 07:23:20;;;;;;;3.20;3.00;;;;;;;;;;5089363;28;24456;-46
2022/05/31 07:25:45;;;;;;;4.40;3.80;;;;;;;;;;5089452;28;24429;-45
2022/05/31 07:28:11;;;;;;;3.63;3.33;;;;;;;;;;5089094;28;24398;-44
2022/05/31 07:30:36;;;;;;;4.40;3.22;;;;;;;;;;5076624;28;24502;-47
2022/05/31 07:33:01;;;;;;;3.20;2.90;;;;;;;;;;5054886;28;24486;-46
2022/05/31 07:35:27;;;;;;;3.33;3.13;;;;;;;;;;5047129;28;24479;-45
2022/05/31 07:37:52;;;;;;;3.05;2.85;;;;;;;;;;5047240;28;24398;-45
2022/05/31 07:40:18;;;;;;;3.90;3.60;;;;;;;;;;5048913;28;25016;-45
2022/05/31 07:42:43;;;;;;;3.23;3.00;;;;;;;;;;5077824;28;24441;-46
2022/05/31 07:45:08;;;;;;;3.20;2.90;;;;;;;;;;5076775;28;25042;-46
2022/05/31 07:47:33;;;;;;;2.93;2.63;;;;;;;;;;5068587;28;24395;-46
2022/05/31 07:49:58;;;;;;;2.70;2.50;;;;;;;;;;5069025;28;24658;-45
2022/05/31 07:52:24;;;;;;;3.80;3.03;;;;;;;;;;5076333;28;24418;-45
2022/05/31 07:54:49;;;;;;;3.25;2.70;;;;;;;;;;5086766;28;24444;-44
2022/05/31 07:59:59;;;;;;;3.63;2.75;;;;;;;;;;5087360;28;24803;-45
2022/05/31 08:02:24;;;;;;;3.75;2.90;;;;;;;;;;5084612;28;25007;-45
2022/05/31 08:04:49;;;;;;;2.70;2.50;;;;;;;;;;5082157;28;24876;-45
2022/05/31 08:07:14;;;;;;;2.78;2.58;;;;;;;;;;5088345;28;24457;-47
2022/05/31 08:09:39;;;;;;;2.65;2.45;;;;;;;;;;5088625;28;24406;-46
2022/05/31 08:12:08;;;;;;;2.78;2.58;;;;;;;;;;5088664;28;24609;-45
2022/05/31 08:14:34;;;;;;;3.15;2.95;;;;;;;;;;5088480;28;24999;-46
2022/05/31 08:16:59;;;;;;;2.65;2.45;;;;;;;;;;5071527;28;24552;-45
2022/05/31 08:19:24;;;;;;;2.60;2.40;;;;;;;;;;5088278;28;24768;-46
2022/05/31 08:21:49;;;;;;;5.10;2.70;;;;;;;;;;5087864;28;24390;-46
2022/05/31 08:24:14;;;;;;;2.50;2.30;;;;;;;;;;5088184;28;24982;-46
2022/05/31 08:26:40;;;;;;;3.60;2.57;;;;;;;;;;5082726;28;24430;-46
2022/05/31 08:29:05;;;;;;;3.07;2.43;;;;;;;;;;5086361;28;24482;-46
2022/05/31 08:31:33;;;;;;;3.10;2.50;;;;;;;;;;5085976;28;24946;-45
2022/05/31 08:33:59;;;;;;;2.47;2.38;;;;;;;;;;5086318;28;24756;-47
2022/05/31 08:36:24;;;;;;;3.30;2.50;;;;;;;;;;5083005;28;25604;-45
2022/05/31 08:38:49;;;;;;;2.40;2.20;;;;;;;;;;5079057;28;24402;-44
2022/05/31 08:41:19;;;;;;;3.03;2.50;;;;;;;;;;5087662;28;24482;-45
2022/05/31 08:43:45;;;;;;;2.55;2.35;;;;;;;;;;5074026;28;24427;-45
2022/05/31 08:46:14;;;;;;;2.60;2.40;;;;;;;;;;5067240;28;24445;-45
2022/05/31 08:48:47;;;;;;;2.45;2.25;;;;;;;;;;5077273;28;24418;-44
2022/05/31 08:56:59;;;;;;;2.40;2.20;;;;;;;;;;5087431;28;24449;-45
2022/05/31 08:59:30;;;;;;;2.30;2.10;;;;;;;;;;5075177;28;24437;-45
2022/05/31 09:01:59;;;;;;;3.13;1.98;;;;;;;;;;5086466;28;24418;-45
2022/05/31 09:04:32;;;;;;;2.27;2.10;;;;;;;;;;5087412;28;25102;-45
2022/05/31 09:07:02;;;;;;;2.28;2.08;;;;;;;;;;5087108;28;24429;-45
2022/05/31 09:09:34;;;;;;;1.90;1.80;;;;;;;;;;5082924;28;24417;-45
2022/05/31 09:11:59;;;;;;;2.60;2.40;;;;;;;;;;5085641;28;24856;-45
2022/05/31 09:14:38;;;;;;;2.65;2.10;;;;;;;;;;5087043;28;24855;-45
2022/05/31 09:17:03;;;;;;;2.72;2.20;;;;;;;;;;5086522;28;24391;-45
2022/05/31 09:19:47;;;;;;;2.00;1.90;;;;;;;;;;5076349;28;24427;-45
2022/05/31 09:22:12;;;;;;;2.20;2.00;;;;;;;;;;5085017;28;24940;-45
2022/05/31 09:24:43;;;;;;;2.40;2.20;;;;;;;;;;5085465;28;24421;-45
2022/05/31 09:27:08;;;;;;;2.25;2.15;;;;;;;;;;5086603;28;24876;-45
2022/05/31 09:29:41;;;;;;;2.10;2.00;;;;;;;;;;5078932;28;24427;-45
2022/05/31 09:32:15;;;;;;;2.00;1.90;;;;;;;;;;5083290;28;24429;-45
2022/05/31 09:34:51;;;;;;;2.33;2.10;;;;;;;;;;5086572;28;24761;-45
2022/05/31 09:37:34;;;;;;;2.42;2.20;;;;;;;;;;5086567;28;24860;-45
2022/05/31 09:40:11;;;;;;;3.00;2.30;;;;;;;;;;5082050;28;24484;-45
2022/05/31 09:42:42;;;;;;;1.83;1.73;;;;;;;;;;5076260;28;24442;-45
2022/05/31 09:45:09;;;;;;;2.50;2.30;;;;;;;;;;5084666;28;24741;-45
2022/05/31 09:47:34;;;;;;;2.40;2.20;;;;;;;;;;5086303;28;24422;-45
2022/05/31 09:49:59;;;;;;;1.80;1.70;;;;;;;;;;5080487;28;24425;-45
2022/05/31 09:52:30;;;;;;;2.60;2.10;;;;;;;;;;5084918;28;24390;-45
2022/05/31 09:57:51;;;;;;;2.20;2.10;;;;;;;;;;5086424;28;24381;-45
2022/05/31 10:00:17;;;;;;;2.40;2.20;;;;;;;;;;5084997;28;24374;-44
2022/05/31 10:02:42;;;;;;;2.33;1.90;;;;;;;;;;5076632;28;24517;-44
2022/05/31 10:05:10;;;;;;;1.90;1.80;;;;;;;;;;5086273;28;24486;-45
2022/05/31 10:07:37;;;;;;;1.90;1.80;;;;;;;;;;5086323;28;24379;-45
2022/05/31 10:10:05;;;;;;;2.50;1.90;;;;;;;;;;5086367;28;24394;-44
2022/05/31 10:12:31;;;;;;;2.10;2.00;;;;;;;;;;5082109;28;24968;-44
2022/05/31 10:14:57;;;;;;;2.00;1.90;;;;;;;;;;5086164;28;24397;-44
2022/05/31 10:17:42;;;;;;;1.90;1.80;;;;;;;;;;5085924;28;24478;-45
2022/05/31 10:20:12;;;;;;;1.90;1.80;;;;;;;;;;5084439;28;24484;-45
2022/05/31 10:22:38;;;;;;;1.90;1.80;;;;;;;;;;5081527;28;24418;-45
2022/05/31 10:25:18;;;;;;;1.80;1.70;;;;;;;;;;5086282;28;24456;-45
2022/05/31 10:27:43;;;;;;;1.80;1.70;;;;;;;;;;5085928;28;24386;-45
2022/05/31 10:30:15;;;;;;;1.75;1.65;;;;;;;;;;5089280;28;24400;-45
2022/05/31 10:32:42;;;;;;;2.50;2.30;;;;;;;;;;5086552;28;24457;-45
2022/05/31 10:35:22;;;;;;;2.15;2.05;;;;;;;;;;5090175;28;25166;-45
2022/05/31 10:37:57;;;;;;;2.30;2.10;;;;;;;;;;5089911;28;24498;-46
2022/05/31 10:40:24;;;;;;;2.10;2.00;;;;;;;;;;5089524;28;24391;-46
2022/05/31 10:42:51;;;;;;;2.60;2.10;;;;;;;;;;5084887;28;24445;-45
2022/05/31 10:45:21;;;;;;;2.17;2.00;;;;;;;;;;5081039;28;24557;-45
2022/05/31 10:47:46;;;;;;;1.80;1.70;;;;;;;;;;5084806;28;24414;-45
2022/05/31 10:50:12;;;;;;;2.40;2.20;;;;;;;;;;5090146;28;24398;-46
2022/05/31 10:52:41;;;;;;;2.00;1.90;;;;;;;;;;5088066;28;24398;-45
2022/05/31 10:55:25;;;;;;;2.10;2.00;;;;;;;;;;5088257;28;24401;-45
2022/05/31 10:58:08;;;;;;;2.63;2.10;;;;;;;;;;5084283;28;24506;-45
2022/05/31 11:00:41;;;;;;;1.90;1.80;;;;;;;;;;5067818;28;24395;-45
2022/05/31 11:03:25;;;;;;;2.10;1.90;;;;;;;;;;5069013;28;24924;-45
2022/05/31 11:05:56;;;;;;;2.10;2.00;;;;;;;;;;5068931;28;24925;-45
2022/05/31 11:11:30;;;;;;;2.10;2.00;;;;;;;;;;5069095;28;24480;-45
2022/05/31 11:13:55;;;;;;;2.27;1.87;;;;;;;;;;5067262;28;24378;-45
2022/05/31 11:16:36;;;;;;;2.90;2.10;;;;;;;;;;5069522;28;25281;-45
2022/05/31 11:19:11;;;;;;;2.20;2.00;;;;;;;;;;5067064;28;24402;-45
2022/05/31 11:21:36;;;;;;;2.42;2.22;;;;;;;;;;5087703;28;24394;-45
2022/05/31 11:24:07;;;;;;;2.30;2.20;;;;;;;;;;5089115;28;24457;-45
2022/05/31 11:26:42;;;;;;;2.10;2.00;;;;;;;;;;5089130;28;24444;-45
2022/05/31 11:29:23;;;;;;;3.03;2.30;;;;;;;;;;5088519;28;24956;-45
2022/05/31 11:31:51;;;;;;;1.85;1.75;;;;;;;;;;5083169;28;24418;-45
2022/05/31 11:34:19;;;;;;;2.00;1.90;;;;;;;;;;5089163;28;24382;-44
2022/05/31 11:36:56;;;;;;;1.80;1.70;;;;;;;;;;5089026;28;24454;-45
2022/05/31 11:39:41;;;;;;;2.83;2.10;;;;;;;;;;5085747;28;24793;-45
2022/05/31 11:42:18;;;;;;;1.90;1.80;;;;;;;;;;5085461;28;24437;-46
2022/05/31 11:44:51;;;;;;;1.90;1.80;;;;;;;;;;5109137;28;24511;-45
2022/05/31 11:47:35;;;;;;;1.90;1.73;;;;;;;;;;5109615;28;24424;-45
2022/05/31 11:50:16;;;;;;;1.90;1.70;;;;;;;;;;5109120;28;24386;-45
2022/05/31 11:52:54;;;;;;;3.08;1.80;;;;;;;;;;5103030;28;24439;-46
2022/05/31 11:55:28;;;;;;;1.70;1.60;;;;;;;;;;5109221;28;24400;-45
2022/05/31 11:58:15;;;;;;;2.10;2.00;;;;;;;;;;5108834;28;24470;-45
2022/05/31 12:00:49;;;;;;;1.90;1.80;;;;;;;;;;5108833;28;24501;-45
2022/05/31 12:03:14;;;;;;;1.88;1.77;;;;;;;;;;5094430;28;24508;-45
2022/05/31 12:05:43;;;;;;;2.90;2.00;;;;;;;;;;5108558;28;24520;-45
2022/05/31 12:08:22;;;;;;;2.10;1.50;;;;;;;;;;5108381;28;24385;-46
2022/05/31 12:10:50;;;;;;;1.90;1.80;;;;;;;;;;5108723;28;24459;-45
2022/05/31 12:13:15;;;;;;;1.73;1.63;;;;;;;;;;5103389;28;25035;-45
2022/05/31 12:15:43;;;;;;;1.70;1.60;;;;;;;;;;5108699;28;24465;-45
2022/05/31 12:18:08;;;;;;;2.20;2.10;;;;;;;;;;5108036;28;24491;-45
2022/05/31 12:20:41;;;;;;;1.75;1.65;;;;;;;;;;5108788;28;24439;-45
2022/05/31 12:23:15;;;;;;;1.60;1.50;;;;;;;;;;5096414;28;24464;-45
2022/05/31 12:25:42;;;;;;;2.03;1.65;;;;;;;;;;5100527;28;24426;-45
2022/05/31 12:28:11;;;;;;;1.73;1.63;;;;;;;;;;5108381;28;24384;-45
2022/05/31 12:30:45;;;;;;;2.45;1.90;;;;;;;;;;5108456;28;24938;-45
2022/05/31 12:33:30;;;;;;;2.10;2.00;;;;;;;;;;5104423;28;24530;-46
2022/05/31 12:35:56;;;;;;;1.42;1.33;;;;;;;;;;5106331;28;24418;-45
2022/05/31 12:38:21;;;;;;;1.67;1.58;;;;;;;;;;5096936;28;25025;-45
2022/05/31 12:40:51;;;;;;;2.10;2.00;;;;;;;;;;5087837;28;24491;-45
2022/05/31 12:43:36;;;;;;;1.80;1.70;;;;;;;;;;5084832;28;24987;-45
2022/05/31 12:46:19;;;;;;;1.60;1.50;;;;;;;;;;5046105;28;24427;-46
2022/05/31 12:48:52;;;;;;;2.00;1.80;;;;;;;;;;5047662;28;24387;-45
2022/05/31 12:51:20;;;;;;;1.80;1.70;;;;;;;;;;5046407;28;24402;-45
2022/05/31 12:53:56;;;;;;;2.20;1.98;;;;;;;;;;5047238;28;25120;-45
2022/05/31 12:56:31;;;;;;;1.80;1.70;;;;;;;;;;5047246;28;24394;-45
2022/05/31 12:58:57;;;;;;;2.30;2.10;;;;;;;;;;5046884;28;24410;-45
2022/05/31 13:01:22;;;;;;;2.22;1.60;;;;;;;;;;5047171;28;24948;-45
2022/05/31 13:03:54;;;;;;;1.88;1.60;;;;;;;;;;5046815;28;24922;-45
2022/05/31 13:06:23;;;;;;;1.60;1.50;;;;;;;;;;5061365;28;24430;-45
2022/05/31 13:08:49;;;;;;;1.70;1.60;;;;;;;;;;5066921;28;24761;-45
2022/05/31 13:20:00;;;;;;;1.90;1.70;;;;;;;;;;5066854;28;24406;-45
2022/05/31 13:22:25;;;;;;;2.00;1.80;;;;;;;;;;5067103;28;24411;-45
2022/05/31 13:25:02;;;;;;;2.10;1.90;;;;;;;;;;5067134;28;24401;-45
2022/05/31 13:27:28;;;;;;;2.30;1.92;;;;;;;;;;5064624;28;24430;-45
2022/05/31 13:30:11;;;;;;;2.50;1.70;;;;;;;;;;5064849;28;24386;-45
2022/05/31 13:32:36;;;;;;;2.13;1.63;;;;;;;;;;5066739;28;24391;-44
2022/05/31 13:35:07;;;;;;;1.83;1.70;;;;;;;;;;5066380;28;24473;-45
2022/05/31 13:37:33;;;;;;;1.70;1.60;;;;;;;;;;5065597;28;24414;-45
2022/05/31 13:39:58;;;;;;;1.80;1.70;;;;;;;;;;5066570;28;24456;-45
2022/05/31 13:42:29;;;;;;;1.60;1.50;;;;;;;;;;5071118;28;24475;-45
2022/05/31 13:44:54;;;;;;;1.60;1.50;;;;;;;;;;5087036;28;24425;-45
2022/05/31 13:47:20;;;;;;;2.10;1.90;;;;;;;;;;5082458;28;24511;-45
2022/05/31 13:49:46;;;;;;;1.70;1.60;;;;;;;;;;5086099;28;24394;-45
2022/05/31 13:52:26;;;;;;;1.90;1.80;;;;;;;;;;5087039;28;25080;-45
2022/05/31 13:55:05;;;;;;;2.25;1.92;;;;;;;;;;5086676;28;24418;-45
2022/05/31 13:57:30;;;;;;;1.80;1.60;;;;;;;;;;5080422;28;24427;-45
2022/05/31 13:59:57;;;;;;;2.23;2.03;;;;;;;;;;5086817;28;24385;-44
2022/05/31 14:02:24;;;;;;;1.70;1.60;;;;;;;;;;5086299;28;24421;-45
2022/05/31 14:04:54;;;;;;;1.80;1.70;;;;;;;;;;5086979;28;24402;-45
2022/05/31 14:07:21;;;;;;;1.70;1.60;;;;;;;;;;5085809;28;25235;-46
2022/05/31 14:09:54;;;;;;;2.30;1.80;;;;;;;;;;5082574;28;24441;-45
2022/05/31 14:12:20;;;;;;;1.70;1.60;;;;;;;;;;5086202;28;24393;-45
2022/05/31 14:14:48;;;;;;;1.83;1.73;;;;;;;;;;5086038;28;24756;-45
2022/05/31 14:17:15;;;;;;;1.60;1.50;;;;;;;;;;5083202;28;24398;-45
2022/05/31 14:19:45;;;;;;;2.50;1.60;;;;;;;;;;5070302;28;24563;-45
2022/05/31 14:22:17;;;;;;;2.97;2.20;;;;;;;;;;5082089;28;25057;-45
2022/05/31 14:24:44;;;;;;;1.80;1.70;;;;;;;;;;5085197;28;24773;-45
2022/05/31 14:27:10;;;;;;;1.90;1.70;;;;;;;;;;5083983;28;24453;-45
2022/05/31 14:29:36;;;;;;;2.00;1.88;;;;;;;;;;5083834;28;24676;-45
2022/05/31 14:32:04;;;;;;;2.15;1.95;;;;;;;;;;5084370;28;24624;-45
2022/05/31 14:34:37;;;;;;;1.80;1.70;;;;;;;;;;5085883;28;24473;-44
2022/05/31 14:37:03;;;;;;;2.20;2.00;;;;;;;;;;5083798;28;24512;-44
2022/05/31 14:39:29;;;;;;;2.20;1.70;;;;;;;;;;5075753;28;25032;-45
2022/05/31 14:41:55;;;;;;;2.03;1.60;;;;;;;;;;5084895;28;24433;-45
2022/05/31 14:44:42;;;;;;;1.80;1.70;;;;;;;;;;5106129;28;24431;-44
2022/05/31 14:47:12;;;;;;;2.10;2.00;;;;;;;;;;5105507;28;24513;-44
2022/05/31 14:49:42;;;;;;;1.90;1.80;;;;;;;;;;5097453;28;24787;-43
2022/05/31 14:52:29;;;;;;;2.10;2.00;;;;;;;;;;5099710;28;25163;-44
2022/05/31 14:55:06;;;;;;;2.00;1.90;;;;;;;;;;5106039;28;24480;-44
2022/05/31 15:00:15;;;;;;;2.25;1.67;;;;;;;;;;5099908;28;24467;-43
2022/05/31 15:02:40;;;;;;;1.80;1.70;;;;;;;;;;5104258;28;24397;-44
2022/05/31 15:05:05;;;;;;;2.00;1.90;;;;;;;;;;5105757;28;24590;-44
2022/05/31 15:07:47;;;;;;;2.10;2.00;;;;;;;;;;5105892;28;24416;-44
2022/05/31 15:10:21;;;;;;;1.88;1.77;;;;;;;;;;5103909;28;24930;-45
2022/05/31 15:18:56;;;;;;;1.98;1.88;;;;;;;;;;5108488;28;24393;-44
2022/05/31 15:18:59;;;;;;;1.73;1.63;;;;;;;;;;5110050;28;24404;-44
2022/05/31 15:21:25;;;;;;;1.90;1.80;;;;;;;;;;5102127;28;24421;-44
2022/05/31 15:23:51;;;;;;;1.90;1.80;;;;;;;;;;5109646;28;24408;-44
2022/05/31 15:26:17;;;;;;;2.10;1.90;;;;;;;;;;5109699;28;24422;-44
2022/05/31 15:28:43;;;;;;;1.67;1.57;;;;;;;;;;5109782;28;24387;-45